Sommer S — WDG3830 — position and weather

sailwx.info

Track history (hours):
 
Tides and Currents Weather Stations Pressure Air Temp Water Temp Dewpoint Dewpoint Depression Visibility Wind Speed Wind Dir Waves Ship Positions

Sommer S

Owner: Shaver Transportation Company, Portland, OR. More information available from US FCC via Universal Licensing System and Coast Guard Vessel Documentation Center.

Last reported at 2016-Aug-23 20:33 UTC. Time now 2016-Aug-23 21:11 UTC.
Position N 46°06' W 122°58'.

Length 25 m; draft 16.5 m.

Type: Tug. MMSI: 367530080.

Date/timePositionNaut miles runAvg speedWind from/ knotsBaromVisibWave heightAir tempDewpointWater temp
2016-Aug-23 20:33N 46°06' W 122°58'0 0.1
2016-Aug-23 19:33N 46°07' W 122°58'0 0.0
2016-Aug-23 18:34N 46°07' W 122°58'1 1.1
2016-Aug-23 17:33N 46°06' W 122°56'0 0.2
2016-Aug-23 16:33N 46°06' W 122°56'0 0.2
2016-Aug-23 15:33N 46°06' W 122°56'4 3.8
2016-Aug-23 14:33N 46°03' W 122°53'4 4.2
2016-Aug-23 13:34N 45°59' W 122°50'0 0.3
2016-Aug-23 12:33N 45°59' W 122°51'5 5.2
2016-Aug-23 11:33N 46°04' W 122°54'2 1.7
2016-Aug-23 10:33N 46°05' W 122°55'0 0.0
2016-Aug-23 09:34N 46°05' W 122°55'1110.6
2016-Aug-23 08:34N 45°56' W 122°48'1312.7
2016-Aug-23 07:33N 45°43' W 122°46'4 4.2
2016-Aug-23 06:33N 45°39' W 122°46'0 0.0
2016-Aug-23 05:34N 45°39' W 122°46'0 0.0
2016-Aug-23 04:33N 45°39' W 122°46'0 0.0
2016-Aug-23 03:34N 45°39' W 122°46'0 0.0
2016-Aug-23 02:33N 45°39' W 122°46'0 0.2
2016-Aug-23 01:33N 45°39' W 122°45'3 2.8
2016-Aug-23 00:33N 45°38' W 122°42'0 0.1
2016-Aug-22 23:33N 45°38' W 122°42'0 0.0
2016-Aug-22 22:33N 45°38' W 122°42'1 1.0
2016-Aug-22 21:33N 45°38' W 122°43'3 3.5
2016-Aug-22 20:33N 45°36' W 122°47'4 3.7
2016-Aug-22 19:33N 45°34' W 122°44'0 0.0
2016-Aug-22 18:34N 45°34' W 122°44'0 0.1
2016-Aug-22 17:33N 45°34' W 122°44'0 0.0
2016-Aug-22 16:34N 45°34' W 122°44'0 0.0
2016-Aug-22 15:34N 45°34' W 122°44'0 0.0
2016-Aug-22 14:34N 45°34' W 122°44'0 0.0
2016-Aug-22 13:33N 45°34' W 122°44'0 0.0
2016-Aug-22 12:33N 45°34' W 122°44'3 2.5
2016-Aug-22 11:34N 45°32' W 122°41'1 1.4
2016-Aug-22 10:34N 45°33' W 122°42'1 1.2
2016-Aug-22 09:33N 45°34' W 122°44'0 0.0
2016-Aug-22 08:32N 45°34' W 122°44'0 0.0
2016-Aug-22 07:33N 45°34' W 122°44'0 0.0
2016-Aug-22 06:33N 45°34' W 122°44'3 2.7
2016-Aug-22 05:33N 45°32' W 122°40'1 1.5
2016-Aug-22 04:33N 45°33' W 122°42'1 1.3
2016-Aug-22 03:33N 45°34' W 122°44'2 2.4
2016-Aug-22 02:33N 45°35' W 122°46'3 3.4
2016-Aug-22 01:33N 45°39' W 122°45'1 1.1
2016-Aug-22 00:33N 45°38' W 122°44'0 0.5
2016-Aug-21 23:33N 45°38' W 122°43'1 1.2
2016-Aug-21 22:33N 45°39' W 122°45'1 0.8
2016-Aug-21 21:33N 45°39' W 122°45'0 0.0
2016-Aug-21 20:33N 45°39' W 122°45'5 4.8
2016-Aug-21 19:33N 45°35' W 122°45'1 1.1
2016-Aug-21 18:34N 45°34' W 122°44'0 0.0
2016-Aug-21 17:33N 45°34' W 122°44'0 0.0
2016-Aug-21 16:33N 45°34' W 122°44'0 0.0
2016-Aug-21 15:34N 45°34' W 122°44'3 2.8
2016-Aug-21 14:34N 45°36' W 122°47'1 1.0
2016-Aug-21 13:33N 45°36' W 122°47'9 8.9
2016-Aug-21 12:34N 45°45' W 122°46'9 9.0
2016-Aug-21 11:33N 45°54' W 122°48'9 8.8
2016-Aug-21 10:33N 46°02' W 122°53'8 8.4
2016-Aug-21 09:33N 46°08' W 123°01'8 7.8
2016-Aug-21 08:32N 46°10' W 123°12'8 7.9
2016-Aug-21 07:33N 46°09' W 123°23'7 7.5
2016-Aug-21 06:33N 46°16' W 123°28'8 7.6
2016-Aug-21 05:33N 46°16' W 123°39'8 7.6
2016-Aug-21 04:34N 46°12' W 123°49'6 5.7
2016-Aug-21 03:33N 46°12' W 123°57'5 5.3
2016-Aug-21 02:33N 46°15' W 124°03'4 4.1
2016-Aug-21 01:34N 46°13' W 123°58'1010.4
2016-Aug-21 00:34N 46°14' W 123°43'1010.3
2016-Aug-20 23:34N 46°16' W 123°28'9 8.9
2016-Aug-20 22:34N 46°09' W 123°22'1010.1
2016-Aug-20 21:34N 46°11' W 123°07'1211.5
2016-Aug-20 20:34N 46°04' W 122°54'3 3.0
2016-Aug-20 19:34N 46°02' W 122°52'0 0.1
2016-Aug-20 18:33N 46°02' W 122°52'3 2.9
2016-Aug-20 17:34N 45°59' W 122°50'2 1.9
2016-Aug-20 16:33N 46°01' W 122°52'1 1.0
2016-Aug-20 15:33N 46°02' W 122°52'0 0.0
2016-Aug-20 14:33N 46°02' W 122°52'0 0.0
2016-Aug-20 13:34N 46°02' W 122°52'0 0.0
2016-Aug-20 12:33N 46°02' W 122°52'2 2.4
2016-Aug-20 11:33N 46°04' W 122°53'3 3.4
2016-Aug-20 10:34N 46°06' W 122°57'1 1.4
2016-Aug-20 09:33N 46°07' W 122°59'0 0.1
2016-Aug-20 08:33N 46°07' W 122°59'0 0.0
2016-Aug-20 07:34N 46°07' W 122°59'0 0.0
2016-Aug-20 06:33N 46°07' W 122°59'0 0.2
2016-Aug-20 05:33N 46°07' W 122°59'0 0.1
2016-Aug-20 04:33N 46°07' W 122°59'0 0.1
2016-Aug-20 03:33N 46°07' W 122°59'0 0.1
2016-Aug-20 02:34N 46°07' W 122°59'0 0.0
2016-Aug-20 01:33N 46°07' W 122°59'0 0.0
2016-Aug-20 00:33N 46°07' W 122°59'0 0.1
2016-Aug-19 23:33N 46°07' W 122°59'0 0.1
2016-Aug-19 22:33N 46°07' W 122°59'3 2.7
2016-Aug-19 21:34N 46°05' W 122°55'0 0.0
2016-Aug-19 20:33N 46°05' W 122°55'0 0.0
2016-Aug-19 19:33N 46°05' W 122°55'0 0.0
2016-Aug-19 18:33N 46°05' W 122°55'4 3.8
2016-Aug-19 17:33N 46°02' W 122°53'4 4.1
2016-Aug-19 16:33N 46°05' W 122°56'0 0.0
2016-Aug-19 15:34N 46°05' W 122°56'0 0.0
2016-Aug-19 14:34N 46°05' W 122°56'1 1.3
2016-Aug-19 13:34N 46°06' W 122°57'1 0.5
2016-Aug-19 12:34N 46°06' W 122°57'0 0.2
2016-Aug-19 11:33N 46°06' W 122°56'0 0.0
2016-Aug-19 10:33N 46°06' W 122°56'0 0.0
2016-Aug-19 09:33N 46°06' W 122°56'1 0.7
2016-Aug-19 08:33N 46°06' W 122°57'1 1.3
2016-Aug-19 07:33N 46°05' W 122°56'0 0.0
2016-Aug-19 06:33N 46°05' W 122°56'0 0.0
2016-Aug-19 05:33N 46°05' W 122°56'0 0.0
2016-Aug-19 04:33N 46°05' W 122°56'0 0.0
2016-Aug-19 03:33N 46°05' W 122°56'0 0.0
2016-Aug-19 02:33N 46°05' W 122°56'0 0.0
2016-Aug-19 01:33N 46°05' W 122°56'2 1.8
2016-Aug-19 00:33N 46°04' W 122°54'6 5.5
2016-Aug-18 23:33N 45°59' W 122°50'0 0.0
2016-Aug-18 22:33N 45°59' W 122°50'0 0.0
2016-Aug-18 21:33N 45°59' W 122°50'0 0.0
2016-Aug-18 20:34N 45°59' W 122°50'0 0.0
2016-Aug-18 19:33N 45°59' W 122°50'0 0.3
2016-Aug-18 18:34N 45°59' W 122°50'4 3.9
2016-Aug-18 17:33N 46°03' W 122°53'4 3.5
2016-Aug-18 16:34N 46°05' W 122°56'0 0.0
2016-Aug-18 15:34N 46°05' W 122°56'0 0.0
2016-Aug-18 14:34N 46°05' W 122°56'0 0.0
2016-Aug-18 13:33N 46°05' W 122°56'0 0.0
2016-Aug-18 12:34N 46°05' W 122°56'0 0.0
2016-Aug-18 11:33N 46°05' W 122°56'0 0.0
2016-Aug-18 10:33N 46°05' W 122°56'0 0.0
2016-Aug-18 09:34N 46°05' W 122°56'0 0.0
2016-Aug-18 08:33N 46°05' W 122°56'0 0.0
2016-Aug-18 07:34N 46°05' W 122°56'0 0.0
2016-Aug-18 06:33N 46°05' W 122°56'0 0.1
2016-Aug-18 05:34N 46°06' W 122°56'8 8.4
2016-Aug-18 04:33N 46°10' W 123°06'3 2.6
2016-Aug-18 03:12N 46°11' W 123°11'0 0.3
2016-Aug-18 02:34N 46°11' W 123°11'0 0.2
2016-Aug-18 01:33N 46°11' W 123°11'8 8.0
2016-Aug-18 00:33N 46°09' W 123°22'9 8.6
2016-Aug-17 23:34N 46°16' W 123°28'1010.0
2016-Aug-17 22:34N 46°14' W 123°43'7 6.9
2016-Aug-17 21:34N 46°11' W 123°52'1 1.1
2016-Aug-17 20:34N 46°11' W 123°53'1 1.1
2016-Aug-17 19:33N 46°11' W 123°52'0 0.0
2016-Aug-17 18:34N 46°11' W 123°52'0 0.1
2016-Aug-17 17:33N 46°11' W 123°52'2 2.0
2016-Aug-17 16:33N 46°12' W 123°49'1010.1
2016-Aug-17 15:34N 46°15' W 123°35'8 8.3
2016-Aug-17 14:33N 46°11' W 123°25'1010.2
2016-Aug-17 13:33N 46°11' W 123°11'1010.3
2016-Aug-17 12:34N 46°06' W 122°58'1 1.1
2016-Aug-17 11:33N 46°07' W 122°59'0 0.0
2016-Aug-17 10:33N 46°07' W 122°59'1 0.7
2016-Aug-17 09:33N 46°07' W 122°58'1 1.3
2016-Aug-17 08:33N 46°06' W 122°56'0 0.0
2016-Aug-17 07:34N 46°06' W 122°56'0 0.1
2016-Aug-17 06:34N 46°06' W 122°56'8 7.5
2016-Aug-17 05:34N 46°10' W 123°05'4 3.8
2016-Aug-17 04:33N 46°11' W 123°11'0 0.0
2016-Aug-17 03:33N 46°11' W 123°11'0 0.0
2016-Aug-17 02:34N 46°11' W 123°11'0 0.3
2016-Aug-17 01:33N 46°11' W 123°11'1212.0
2016-Aug-17 00:33N 46°06' W 122°56'5 4.8
2016-Aug-16 23:33N 46°01' W 122°52'6 6.1
2016-Aug-16 22:33N 45°56' W 122°48'5 5.1
2016-Aug-16 21:33N 45°51' W 122°47'1111.0
2016-Aug-16 20:33N 46°01' W 122°52'5 5.0
2016-Aug-16 19:33N 46°05' W 122°56'0 0.0
2016-Aug-16 18:33N 46°05' W 122°56'0 0.4
2016-Aug-16 17:33N 46°05' W 122°55'0 0.4
2016-Aug-16 16:33N 46°05' W 122°56'0 0.0
2016-Aug-16 15:33N 46°05' W 122°56'0 0.0
2016-Aug-16 14:33N 46°05' W 122°56'0 0.0
2016-Aug-16 13:33N 46°05' W 122°56'0 0.0
2016-Aug-16 12:33N 46°05' W 122°56'0 0.0
2016-Aug-16 11:33N 46°05' W 122°56'0 0.0
2016-Aug-16 10:33N 46°05' W 122°56'0 0.0
2016-Aug-16 09:33N 46°05' W 122°56'0 0.0
2016-Aug-16 08:33N 46°05' W 122°56'0 0.0
2016-Aug-16 07:33N 46°05' W 122°56'1 1.1
2016-Aug-16 06:33N 46°06' W 122°57'1 0.5
2016-Aug-16 04:34N 46°05' W 122°56'0 0.0
2016-Aug-16 03:33N 46°05' W 122°56'0 0.0
2016-Aug-16 02:33N 46°05' W 122°56'1 1.0
2016-Aug-16 01:33N 46°06' W 122°57'1010.2
2016-Aug-16 00:33N 46°11' W 123°10'1010.0
2016-Aug-15 23:33N 46°09' W 123°24'8 8.4
2016-Aug-15 22:33N 46°16' W 123°32'1110.8
2016-Aug-15 21:33N 46°13' W 123°47'3 3.2
2016-Aug-15 20:33N 46°11' W 123°52'0 0.0
2016-Aug-15 19:34N 46°11' W 123°52'0 0.0
2016-Aug-15 18:33N 46°11' W 123°52'0 0.2
2016-Aug-15 17:33N 46°11' W 123°52'8 8.5
2016-Aug-15 16:33N 46°16' W 124°02'0 0.1
2016-Aug-15 15:33N 46°16' W 124°02'0 0.4
2016-Aug-15 14:34N 46°16' W 124°02'7 6.8
2016-Aug-15 13:33N 46°11' W 123°54'2 1.7
2016-Aug-15 12:34N 46°11' W 123°52'0 0.0
2016-Aug-15 11:34N 46°11' W 123°52'0 0.0
2016-Aug-15 10:34N 46°11' W 123°52'0 0.0
2016-Aug-15 09:34N 46°11' W 123°52'0 0.0
2016-Aug-15 08:34N 46°11' W 123°52'0 0.0
2016-Aug-15 07:33N 46°11' W 123°52'0 0.0
2016-Aug-15 06:33N 46°11' W 123°52'0 0.0
2016-Aug-15 04:34N 46°11' W 123°52'0 0.0
2016-Aug-15 03:33N 46°11' W 123°52'0 0.0
2016-Aug-15 02:33N 46°11' W 123°52'0 0.3
2016-Aug-15 01:34N 46°12' W 123°51'1010.4
2016-Aug-15 00:33N 46°15' W 124°05'6 5.7
2016-Aug-14 23:33N 46°13' W 123°58'9 8.6
2016-Aug-14 22:33N 46°13' W 123°45'1111.0
2016-Aug-14 21:33N 46°16' W 123°30'9 9.0
2016-Aug-14 20:33N 46°09' W 123°23'1010.1
2016-Aug-14 19:33N 46°11' W 123°09'10 9.8
2016-Aug-14 18:33N 46°06' W 122°57'5 5.1
2016-Aug-14 17:33N 46°02' W 122°53'0 0.0
2016-Aug-14 16:33N 46°02' W 122°53'0 0.0
2016-Aug-14 15:33N 46°02' W 122°53'0 0.0
2016-Aug-14 14:33N 46°02' W 122°53'0 0.0
2016-Aug-14 13:33N 46°02' W 122°53'0 0.0
2016-Aug-14 12:33N 46°02' W 122°53'0 0.0
2016-Aug-14 11:33N 46°02' W 122°53'0 0.0
2016-Aug-14 10:33N 46°02' W 122°53'0 0.0
2016-Aug-14 09:33N 46°02' W 122°53'0 0.0
2016-Aug-14 08:33N 46°02' W 122°53'0 0.0
2016-Aug-14 07:33N 46°02' W 122°53'0 0.0
2016-Aug-14 06:33N 46°02' W 122°53'0 0.0
2016-Aug-14 04:33N 46°02' W 122°53'0 0.0
2016-Aug-14 03:33N 46°02' W 122°53'0 0.0
2016-Aug-14 02:33N 46°02' W 122°53'0 0.0
2016-Aug-14 01:33N 46°02' W 122°53'0 0.0
2016-Aug-14 00:33N 46°02' W 122°53'0 0.0
2016-Aug-13 23:34N 46°02' W 122°53'0 0.0
2016-Aug-13 22:33N 46°02' W 122°53'0 0.0
2016-Aug-13 21:33N 46°02' W 122°53'  
Track history (hours):
 
Tides and Currents Weather Stations Pressure Air Temp Water Temp Dewpoint Dewpoint Depression Visibility Wind Speed Wind Dir Waves Ship Positions

Sommer S

Owner: Shaver Transportation Company, Portland, OR. More information available from US FCC via Universal Licensing System and Coast Guard Vessel Documentation Center.

Last reported at 2016-Aug-23 20:33 UTC. Time now 2016-Aug-23 21:11 UTC.
Position N 46°06' W 122°58'.

Length 25 m; draft 16.5 m.

Type: Tug. MMSI: 367530080.

Date/timePositionNaut miles runAvg speedWind from/ knotsBaromVisibWave heightAir tempDewpointWater temp
2016-Aug-23 20:33N 46°06' W 122°58'0 0.1
2016-Aug-23 19:33N 46°07' W 122°58'0 0.0
2016-Aug-23 18:34N 46°07' W 122°58'1 1.1
2016-Aug-23 17:33N 46°06' W 122°56'0 0.2
2016-Aug-23 16:33N 46°06' W 122°56'0 0.2
2016-Aug-23 15:33N 46°06' W 122°56'4 3.8
2016-Aug-23 14:33N 46°03' W 122°53'4 4.2
2016-Aug-23 13:34N 45°59' W 122°50'0 0.3
2016-Aug-23 12:33N 45°59' W 122°51'5 5.2
2016-Aug-23 11:33N 46°04' W 122°54'2 1.7
2016-Aug-23 10:33N 46°05' W 122°55'0 0.0
2016-Aug-23 09:34N 46°05' W 122°55'1110.6
2016-Aug-23 08:34N 45°56' W 122°48'1312.7
2016-Aug-23 07:33N 45°43' W 122°46'4 4.2
2016-Aug-23 06:33N 45°39' W 122°46'0 0.0
2016-Aug-23 05:34N 45°39' W 122°46'0 0.0
2016-Aug-23 04:33N 45°39' W 122°46'0 0.0
2016-Aug-23 03:34N 45°39' W 122°46'0 0.0
2016-Aug-23 02:33N 45°39' W 122°46'0 0.2
2016-Aug-23 01:33N 45°39' W 122°45'3 2.8
2016-Aug-23 00:33N 45°38' W 122°42'0 0.1
2016-Aug-22 23:33N 45°38' W 122°42'0 0.0
2016-Aug-22 22:33N 45°38' W 122°42'1 1.0
2016-Aug-22 21:33N 45°38' W 122°43'3 3.5
2016-Aug-22 20:33N 45°36' W 122°47'4 3.7
2016-Aug-22 19:33N 45°34' W 122°44'0 0.0
2016-Aug-22 18:34N 45°34' W 122°44'0 0.1
2016-Aug-22 17:33N 45°34' W 122°44'0 0.0
2016-Aug-22 16:34N 45°34' W 122°44'0 0.0
2016-Aug-22 15:34N 45°34' W 122°44'0 0.0
2016-Aug-22 14:34N 45°34' W 122°44'0 0.0
2016-Aug-22 13:33N 45°34' W 122°44'0 0.0
2016-Aug-22 12:33N 45°34' W 122°44'3 2.5
2016-Aug-22 11:34N 45°32' W 122°41'1 1.4
2016-Aug-22 10:34N 45°33' W 122°42'1 1.2
2016-Aug-22 09:33N 45°34' W 122°44'0 0.0
2016-Aug-22 08:32N 45°34' W 122°44'0 0.0
2016-Aug-22 07:33N 45°34' W 122°44'0 0.0
2016-Aug-22 06:33N 45°34' W 122°44'3 2.7
2016-Aug-22 05:33N 45°32' W 122°40'1 1.5
2016-Aug-22 04:33N 45°33' W 122°42'1 1.3
2016-Aug-22 03:33N 45°34' W 122°44'2 2.4
2016-Aug-22 02:33N 45°35' W 122°46'3 3.4
2016-Aug-22 01:33N 45°39' W 122°45'1 1.1
2016-Aug-22 00:33N 45°38' W 122°44'0 0.5
2016-Aug-21 23:33N 45°38' W 122°43'1 1.2
2016-Aug-21 22:33N 45°39' W 122°45'1 0.8
2016-Aug-21 21:33N 45°39' W 122°45'0 0.0
2016-Aug-21 20:33N 45°39' W 122°45'5 4.8
2016-Aug-21 19:33N 45°35' W 122°45'1 1.1
2016-Aug-21 18:34N 45°34' W 122°44'0 0.0
2016-Aug-21 17:33N 45°34' W 122°44'0 0.0
2016-Aug-21 16:33N 45°34' W 122°44'0 0.0
2016-Aug-21 15:34N 45°34' W 122°44'3 2.8
2016-Aug-21 14:34N 45°36' W 122°47'1 1.0
2016-Aug-21 13:33N 45°36' W 122°47'9 8.9
2016-Aug-21 12:34N 45°45' W 122°46'9 9.0
2016-Aug-21 11:33N 45°54' W 122°48'9 8.8
2016-Aug-21 10:33N 46°02' W 122°53'8 8.4
2016-Aug-21 09:33N 46°08' W 123°01'8 7.8
2016-Aug-21 08:32N 46°10' W 123°12'8 7.9
2016-Aug-21 07:33N 46°09' W 123°23'7 7.5
2016-Aug-21 06:33N 46°16' W 123°28'8 7.6
2016-Aug-21 05:33N 46°16' W 123°39'8 7.6
2016-Aug-21 04:34N 46°12' W 123°49'6 5.7
2016-Aug-21 03:33N 46°12' W 123°57'5 5.3
2016-Aug-21 02:33N 46°15' W 124°03'4 4.1
2016-Aug-21 01:34N 46°13' W 123°58'1010.4
2016-Aug-21 00:34N 46°14' W 123°43'1010.3
2016-Aug-20 23:34N 46°16' W 123°28'9 8.9
2016-Aug-20 22:34N 46°09' W 123°22'1010.1
2016-Aug-20 21:34N 46°11' W 123°07'1211.5
2016-Aug-20 20:34N 46°04' W 122°54'3 3.0
2016-Aug-20 19:34N 46°02' W 122°52'0 0.1
2016-Aug-20 18:33N 46°02' W 122°52'3 2.9
2016-Aug-20 17:34N 45°59' W 122°50'2 1.9
2016-Aug-20 16:33N 46°01' W 122°52'1 1.0
2016-Aug-20 15:33N 46°02' W 122°52'0 0.0
2016-Aug-20 14:33N 46°02' W 122°52'0 0.0
2016-Aug-20 13:34N 46°02' W 122°52'0 0.0
2016-Aug-20 12:33N 46°02' W 122°52'2 2.4
2016-Aug-20 11:33N 46°04' W 122°53'3 3.4
2016-Aug-20 10:34N 46°06' W 122°57'1 1.4
2016-Aug-20 09:33N 46°07' W 122°59'0 0.1
2016-Aug-20 08:33N 46°07' W 122°59'0 0.0
2016-Aug-20 07:34N 46°07' W 122°59'0 0.0
2016-Aug-20 06:33N 46°07' W 122°59'0 0.2
2016-Aug-20 05:33N 46°07' W 122°59'0 0.1
2016-Aug-20 04:33N 46°07' W 122°59'0 0.1
2016-Aug-20 03:33N 46°07' W 122°59'0 0.1
2016-Aug-20 02:34N 46°07' W 122°59'0 0.0
2016-Aug-20 01:33N 46°07' W 122°59'0 0.0
2016-Aug-20 00:33N 46°07' W 122°59'0 0.1
2016-Aug-19 23:33N 46°07' W 122°59'0 0.1
2016-Aug-19 22:33N 46°07' W 122°59'3 2.7
2016-Aug-19 21:34N 46°05' W 122°55'0 0.0
2016-Aug-19 20:33N 46°05' W 122°55'0 0.0
2016-Aug-19 19:33N 46°05' W 122°55'0 0.0
2016-Aug-19 18:33N 46°05' W 122°55'4 3.8
2016-Aug-19 17:33N 46°02' W 122°53'4 4.1
2016-Aug-19 16:33N 46°05' W 122°56'0 0.0
2016-Aug-19 15:34N 46°05' W 122°56'0 0.0
2016-Aug-19 14:34N 46°05' W 122°56'1 1.3
2016-Aug-19 13:34N 46°06' W 122°57'1 0.5
2016-Aug-19 12:34N 46°06' W 122°57'0 0.2
2016-Aug-19 11:33N 46°06' W 122°56'0 0.0
2016-Aug-19 10:33N 46°06' W 122°56'0 0.0
2016-Aug-19 09:33N 46°06' W 122°56'1 0.7
2016-Aug-19 08:33N 46°06' W 122°57'1 1.3
2016-Aug-19 07:33N 46°05' W 122°56'0 0.0
2016-Aug-19 06:33N 46°05' W 122°56'0 0.0
2016-Aug-19 05:33N 46°05' W 122°56'0 0.0
2016-Aug-19 04:33N 46°05' W 122°56'0 0.0
2016-Aug-19 03:33N 46°05' W 122°56'0 0.0
2016-Aug-19 02:33N 46°05' W 122°56'0 0.0
2016-Aug-19 01:33N 46°05' W 122°56'2 1.8
2016-Aug-19 00:33N 46°04' W 122°54'6 5.5
2016-Aug-18 23:33N 45°59' W 122°50'0 0.0
2016-Aug-18 22:33N 45°59' W 122°50'0 0.0
2016-Aug-18 21:33N 45°59' W 122°50'0 0.0
2016-Aug-18 20:34N 45°59' W 122°50'0 0.0
2016-Aug-18 19:33N 45°59' W 122°50'0 0.3
2016-Aug-18 18:34N 45°59' W 122°50'4 3.9
2016-Aug-18 17:33N 46°03' W 122°53'4 3.5
2016-Aug-18 16:34N 46°05' W 122°56'0 0.0
2016-Aug-18 15:34N 46°05' W 122°56'0 0.0
2016-Aug-18 14:34N 46°05' W 122°56'0 0.0
2016-Aug-18 13:33N 46°05' W 122°56'0 0.0
2016-Aug-18 12:34N 46°05' W 122°56'0 0.0
2016-Aug-18 11:33N 46°05' W 122°56'0 0.0
2016-Aug-18 10:33N 46°05' W 122°56'0 0.0
2016-Aug-18 09:34N 46°05' W 122°56'0 0.0
2016-Aug-18 08:33N 46°05' W 122°56'0 0.0
2016-Aug-18 07:34N 46°05' W 122°56'0 0.0
2016-Aug-18 06:33N 46°05' W 122°56'0 0.1
2016-Aug-18 05:34N 46°06' W 122°56'8 8.4
2016-Aug-18 04:33N 46°10' W 123°06'3 2.6
2016-Aug-18 03:12N 46°11' W 123°11'0 0.3
2016-Aug-18 02:34N 46°11' W 123°11'0 0.2
2016-Aug-18 01:33N 46°11' W 123°11'8 8.0
2016-Aug-18 00:33N 46°09' W 123°22'9 8.6
2016-Aug-17 23:34N 46°16' W 123°28'1010.0
2016-Aug-17 22:34N 46°14' W 123°43'7 6.9
2016-Aug-17 21:34N 46°11' W 123°52'1 1.1
2016-Aug-17 20:34N 46°11' W 123°53'1 1.1
2016-Aug-17 19:33N 46°11' W 123°52'0 0.0
2016-Aug-17 18:34N 46°11' W 123°52'0 0.1
2016-Aug-17 17:33N 46°11' W 123°52'2 2.0
2016-Aug-17 16:33N 46°12' W 123°49'1010.1
2016-Aug-17 15:34N 46°15' W 123°35'8 8.3
2016-Aug-17 14:33N 46°11' W 123°25'1010.2
2016-Aug-17 13:33N 46°11' W 123°11'1010.3
2016-Aug-17 12:34N 46°06' W 122°58'1 1.1
2016-Aug-17 11:33N 46°07' W 122°59'0 0.0
2016-Aug-17 10:33N 46°07' W 122°59'1 0.7
2016-Aug-17 09:33N 46°07' W 122°58'1 1.3
2016-Aug-17 08:33N 46°06' W 122°56'0 0.0
2016-Aug-17 07:34N 46°06' W 122°56'0 0.1
2016-Aug-17 06:34N 46°06' W 122°56'8 7.5
2016-Aug-17 05:34N 46°10' W 123°05'4 3.8
2016-Aug-17 04:33N 46°11' W 123°11'0 0.0
2016-Aug-17 03:33N 46°11' W 123°11'0 0.0
2016-Aug-17 02:34N 46°11' W 123°11'0 0.3
2016-Aug-17 01:33N 46°11' W 123°11'1212.0
2016-Aug-17 00:33N 46°06' W 122°56'5 4.8
2016-Aug-16 23:33N 46°01' W 122°52'6 6.1
2016-Aug-16 22:33N 45°56' W 122°48'5 5.1
2016-Aug-16 21:33N 45°51' W 122°47'1111.0
2016-Aug-16 20:33N 46°01' W 122°52'5 5.0
2016-Aug-16 19:33N 46°05' W 122°56'0 0.0
2016-Aug-16 18:33N 46°05' W 122°56'0 0.4
2016-Aug-16 17:33N 46°05' W 122°55'0 0.4
2016-Aug-16 16:33N 46°05' W 122°56'0 0.0
2016-Aug-16 15:33N 46°05' W 122°56'0 0.0
2016-Aug-16 14:33N 46°05' W 122°56'0 0.0
2016-Aug-16 13:33N 46°05' W 122°56'0 0.0
2016-Aug-16 12:33N 46°05' W 122°56'0 0.0
2016-Aug-16 11:33N 46°05' W 122°56'0 0.0
2016-Aug-16 10:33N 46°05' W 122°56'0 0.0
2016-Aug-16 09:33N 46°05' W 122°56'0 0.0
2016-Aug-16 08:33N 46°05' W 122°56'0 0.0
2016-Aug-16 07:33N 46°05' W 122°56'1 1.1
2016-Aug-16 06:33N 46°06' W 122°57'1 0.5
2016-Aug-16 04:34N 46°05' W 122°56'0 0.0
2016-Aug-16 03:33N 46°05' W 122°56'0 0.0
2016-Aug-16 02:33N 46°05' W 122°56'1 1.0
2016-Aug-16 01:33N 46°06' W 122°57'1010.2
2016-Aug-16 00:33N 46°11' W 123°10'1010.0
2016-Aug-15 23:33N 46°09' W 123°24'8 8.4
2016-Aug-15 22:33N 46°16' W 123°32'1110.8
2016-Aug-15 21:33N 46°13' W 123°47'3 3.2
2016-Aug-15 20:33N 46°11' W 123°52'0 0.0
2016-Aug-15 19:34N 46°11' W 123°52'0 0.0
2016-Aug-15 18:33N 46°11' W 123°52'0 0.2
2016-Aug-15 17:33N 46°11' W 123°52'8 8.5
2016-Aug-15 16:33N 46°16' W 124°02'0 0.1
2016-Aug-15 15:33N 46°16' W 124°02'0 0.4
2016-Aug-15 14:34N 46°16' W 124°02'7 6.8
2016-Aug-15 13:33N 46°11' W 123°54'2 1.7
2016-Aug-15 12:34N 46°11' W 123°52'0 0.0
2016-Aug-15 11:34N 46°11' W 123°52'0 0.0
2016-Aug-15 10:34N 46°11' W 123°52'0 0.0
2016-Aug-15 09:34N 46°11' W 123°52'0 0.0
2016-Aug-15 08:34N 46°11' W 123°52'0 0.0
2016-Aug-15 07:33N 46°11' W 123°52'0 0.0
2016-Aug-15 06:33N 46°11' W 123°52'0 0.0
2016-Aug-15 04:34N 46°11' W 123°52'0 0.0
2016-Aug-15 03:33N 46°11' W 123°52'0 0.0
2016-Aug-15 02:33N 46°11' W 123°52'0 0.3
2016-Aug-15 01:34N 46°12' W 123°51'1010.4
2016-Aug-15 00:33N 46°15' W 124°05'6 5.7
2016-Aug-14 23:33N 46°13' W 123°58'9 8.6
2016-Aug-14 22:33N 46°13' W 123°45'1111.0
2016-Aug-14 21:33N 46°16' W 123°30'9 9.0
2016-Aug-14 20:33N 46°09' W 123°23'1010.1
2016-Aug-14 19:33N 46°11' W 123°09'10 9.8
2016-Aug-14 18:33N 46°06' W 122°57'5 5.1
2016-Aug-14 17:33N 46°02' W 122°53'0 0.0
2016-Aug-14 16:33N 46°02' W 122°53'0 0.0
2016-Aug-14 15:33N 46°02' W 122°53'0 0.0
2016-Aug-14 14:33N 46°02' W 122°53'0 0.0
2016-Aug-14 13:33N 46°02' W 122°53'0 0.0
2016-Aug-14 12:33N 46°02' W 122°53'0 0.0
2016-Aug-14 11:33N 46°02' W 122°53'0 0.0
2016-Aug-14 10:33N 46°02' W 122°53'0 0.0
2016-Aug-14 09:33N 46°02' W 122°53'0 0.0
2016-Aug-14 08:33N 46°02' W 122°53'0 0.0
2016-Aug-14 07:33N 46°02' W 122°53'0 0.0
2016-Aug-14 06:33N 46°02' W 122°53'0 0.0
2016-Aug-14 04:33N 46°02' W 122°53'0 0.0
2016-Aug-14 03:33N 46°02' W 122°53'0 0.0
2016-Aug-14 02:33N 46°02' W 122°53'0 0.0
2016-Aug-14 01:33N 46°02' W 122°53'0 0.0
2016-Aug-14 00:33N 46°02' W 122°53'0 0.0
2016-Aug-13 23:34N 46°02' W 122°53'0 0.0
2016-Aug-13 22:33N 46°02' W 122°53'0 0.0
2016-Aug-13 21:33N 46°02' W 122°53'  

Dump ship's entire track history